Terminal Aerodrome Forecast
Issued by NWS Greer, SC

Home | Current Version | Previous Version | Text Only | Print | Product List | Glossary On
Versions: 1 2 3 4 5 6 7 8 9 10 11 12 13 14 15 16 17 18 19 20 21 22 23 24 25 26 27
000
FTUS42 KGSP 182332
TAFGSP
TAF
KGSP 182332Z 1900/1924 13004KT P6SM VCSH BKN040
     FM190400 10004KT 6SM BR VCSH OVC025
     FM190700 11005KT 3SM -SHRA BR OVC008
     FM191400 15010G17KT 2SM SHRA BR VCTS OVC005CB
     FM192200 21009KT 4SM SHRA BKN007=

USA.gov is the U.S. government's official web portal to all federal, state and local government web resources and services.